sensor_id;sensor_type;location;lat;lon;timestamp;P1;durP1;ratioP1;P2;durP2;ratioP2
7501;SDS011;3792;47.740;7.606;2023-07-16T00:02:08;2.10;;;1.30;;
7501;SDS011;3792;47.740;7.606;2023-07-16T00:04:35;2.40;;;1.00;;
7501;SDS011;3792;47.740;7.606;2023-07-16T00:07:04;1.93;;;1.30;;
7501;SDS011;3792;47.740;7.606;2023-07-16T00:09:31;4.50;;;1.40;;
7501;SDS011;3792;47.740;7.606;2023-07-16T00:11:58;2.97;;;1.57;;
7501;SDS011;3792;47.740;7.606;2023-07-16T00:14:26;1.53;;;1.20;;
7501;SDS011;3792;47.740;7.606;2023-07-16T00:16:54;5.07;;;1.47;;
7501;SDS011;3792;47.740;7.606;2023-07-16T00:19:21;2.47;;;1.40;;
7501;SDS011;3792;47.740;7.606;2023-07-16T00:21:48;1.30;;;1.20;;
7501;SDS011;3792;47.740;7.606;2023-07-16T00:24:16;2.50;;;1.23;;
7501;SDS011;3792;47.740;7.606;2023-07-16T00:26:43;1.93;;;1.30;;
7501;SDS011;3792;47.740;7.606;2023-07-16T00:29:10;1.60;;;1.40;;
7501;SDS011;3792;47.740;7.606;2023-07-16T00:31:37;1.43;;;1.33;;
7501;SDS011;3792;47.740;7.606;2023-07-16T00:34:04;1.37;;;1.27;;
7501;SDS011;3792;47.740;7.606;2023-07-16T00:36:31;1.30;;;1.20;;
7501;SDS011;3792;47.740;7.606;2023-07-16T00:38:58;2.93;;;1.10;;
7501;SDS011;3792;47.740;7.606;2023-07-16T00:41:28;1.30;;;1.20;;
7501;SDS011;3792;47.740;7.606;2023-07-16T00:43:55;2.53;;;1.20;;
7501;SDS011;3792;47.740;7.606;2023-07-16T00:46:22;1.70;;;1.10;;
7501;SDS011;3792;47.740;7.606;2023-07-16T00:48:50;2.07;;;1.20;;
7501;SDS011;3792;47.740;7.606;2023-07-16T00:51:17;1.47;;;1.20;;
7501;SDS011;3792;47.740;7.606;2023-07-16T00:53:45;1.43;;;1.20;;
7501;SDS011;3792;47.740;7.606;2023-07-16T00:56:13;2.50;;;1.10;;
7501;SDS011;3792;47.740;7.606;2023-07-16T00:58:44;1.17;;;1.07;;
7501;SDS011;3792;47.740;7.606;2023-07-16T01:01:12;3.43;;;1.60;;
7501;SDS011;3792;47.740;7.606;2023-07-16T01:03:39;1.67;;;1.30;;
7501;SDS011;3792;47.740;7.606;2023-07-16T01:06:09;3.43;;;1.30;;
7501;SDS011;3792;47.740;7.606;2023-07-16T01:08:40;2.23;;;1.20;;
7501;SDS011;3792;47.740;7.606;2023-07-16T01:11:10;1.90;;;1.20;;
7501;SDS011;3792;47.740;7.606;2023-07-16T01:13:38;3.00;;;1.53;;
7501;SDS011;3792;47.740;7.606;2023-07-16T01:16:17;1.90;;;0.97;;
7501;SDS011;3792;47.740;7.606;2023-07-16T01:18:44;1.40;;;1.30;;
7501;SDS011;3792;47.740;7.606;2023-07-16T01:21:11;3.17;;;1.20;;
7501;SDS011;3792;47.740;7.606;2023-07-16T01:23:48;2.00;;;1.30;;
7501;SDS011;3792;47.740;7.606;2023-07-16T01:26:29;2.73;;;1.10;;
7501;SDS011;3792;47.740;7.606;2023-07-16T01:29:17;4.47;;;1.67;;
7501;SDS011;3792;47.740;7.606;2023-07-16T01:31:52;1.87;;;1.10;;
7501;SDS011;3792;47.740;7.606;2023-07-16T01:34:22;3.20;;;1.37;;
7501;SDS011;3792;47.740;7.606;2023-07-16T01:36:51;2.27;;;1.13;;
7501;SDS011;3792;47.740;7.606;2023-07-16T01:39:18;2.00;;;1.07;;
7501;SDS011;3792;47.740;7.606;2023-07-16T01:41:46;1.60;;;1.10;;
7501;SDS011;3792;47.740;7.606;2023-07-16T01:44:14;3.07;;;1.30;;
7501;SDS011;3792;47.740;7.606;2023-07-16T01:46:41;1.80;;;1.33;;
7501;SDS011;3792;47.740;7.606;2023-07-16T01:49:08;3.10;;;1.20;;
7501;SDS011;3792;47.740;7.606;2023-07-16T01:51:35;1.33;;;1.20;;
7501;SDS011;3792;47.740;7.606;2023-07-16T01:54:02;1.30;;;1.20;;
7501;SDS011;3792;47.740;7.606;2023-07-16T01:56:29;2.23;;;1.17;;
7501;SDS011;3792;47.740;7.606;2023-07-16T01:58:58;2.13;;;1.40;;
7501;SDS011;3792;47.740;7.606;2023-07-16T02:01:26;1.33;;;1.23;;
7501;SDS011;3792;47.740;7.606;2023-07-16T02:03:59;2.53;;;1.27;;
7501;SDS011;3792;47.740;7.606;2023-07-16T02:06:26;3.77;;;1.10;;
7501;SDS011;3792;47.740;7.606;2023-07-16T02:08:53;4.33;;;1.10;;
7501;SDS011;3792;47.740;7.606;2023-07-16T02:11:20;1.00;;;1.00;;
7501;SDS011;3792;47.740;7.606;2023-07-16T02:13:48;1.87;;;1.20;;
7501;SDS011;3792;47.740;7.606;2023-07-16T02:16:15;1.43;;;1.33;;
7501;SDS011;3792;47.740;7.606;2023-07-16T02:18:43;2.60;;;1.57;;
7501;SDS011;3792;47.740;7.606;2023-07-16T02:21:13;0.97;;;0.97;;
7501;SDS011;3792;47.740;7.606;2023-07-16T02:23:40;1.43;;;1.00;;
7501;SDS011;3792;47.740;7.606;2023-07-16T02:26:07;1.23;;;1.13;;
7501;SDS011;3792;47.740;7.606;2023-07-16T02:28:34;1.93;;;1.20;;
7501;SDS011;3792;47.740;7.606;2023-07-16T02:31:01;4.13;;;1.30;;
7501;SDS011;3792;47.740;7.606;2023-07-16T02:33:29;2.97;;;1.10;;
7501;SDS011;3792;47.740;7.606;2023-07-16T02:35:57;2.40;;;1.30;;
7501;SDS011;3792;47.740;7.606;2023-07-16T02:38:24;2.97;;;1.57;;
7501;SDS011;3792;47.740;7.606;2023-07-16T02:40:51;1.37;;;1.27;;
7501;SDS011;3792;47.740;7.606;2023-07-16T02:43:19;2.23;;;1.30;;
7501;SDS011;3792;47.740;7.606;2023-07-16T02:45:46;1.53;;;1.30;;
7501;SDS011;3792;47.740;7.606;2023-07-16T02:48:13;2.07;;;1.43;;
7501;SDS011;3792;47.740;7.606;2023-07-16T02:50:41;2.27;;;1.43;;
7501;SDS011;3792;47.740;7.606;2023-07-16T02:53:09;3.10;;;1.20;;
7501;SDS011;3792;47.740;7.606;2023-07-16T02:55:36;2.40;;;1.40;;
7501;SDS011;3792;47.740;7.606;2023-07-16T02:58:03;3.77;;;1.57;;
7501;SDS011;3792;47.740;7.606;2023-07-16T03:00:30;2.53;;;1.27;;
7501;SDS011;3792;47.740;7.606;2023-07-16T03:02:58;2.43;;;1.23;;
7501;SDS011;3792;47.740;7.606;2023-07-16T03:05:25;1.33;;;1.20;;
7501;SDS011;3792;47.740;7.606;2023-07-16T03:07:52;3.70;;;1.43;;
7501;SDS011;3792;47.740;7.606;2023-07-16T03:10:22;4.73;;;1.10;;
7501;SDS011;3792;47.740;7.606;2023-07-16T03:12:51;1.33;;;1.10;;
7501;SDS011;3792;47.740;7.606;2023-07-16T03:15:18;2.03;;;1.30;;
7501;SDS011;3792;47.740;7.606;2023-07-16T03:17:45;1.40;;;1.30;;
7501;SDS011;3792;47.740;7.606;2023-07-16T03:20:12;3.77;;;1.53;;
7501;SDS011;3792;47.740;7.606;2023-07-16T03:22:40;4.07;;;1.43;;
7501;SDS011;3792;47.740;7.606;2023-07-16T03:25:07;1.60;;;1.50;;
7501;SDS011;3792;47.740;7.606;2023-07-16T03:27:36;2.60;;;1.30;;
7501;SDS011;3792;47.740;7.606;2023-07-16T03:30:03;2.03;;;1.10;;
7501;SDS011;3792;47.740;7.606;2023-07-16T03:32:31;1.30;;;1.20;;
7501;SDS011;3792;47.740;7.606;2023-07-16T03:34:58;2.17;;;1.50;;
7501;SDS011;3792;47.740;7.606;2023-07-16T03:37:25;3.60;;;1.30;;
7501;SDS011;3792;47.740;7.606;2023-07-16T03:39:52;1.70;;;1.27;;
7501;SDS011;3792;47.740;7.606;2023-07-16T03:42:19;1.73;;;1.30;;
7501;SDS011;3792;47.740;7.606;2023-07-16T03:44:48;2.00;;;1.43;;
7501;SDS011;3792;47.740;7.606;2023-07-16T03:47:15;1.70;;;1.40;;
7501;SDS011;3792;47.740;7.606;2023-07-16T03:49:42;1.30;;;1.10;;
7501;SDS011;3792;47.740;7.606;2023-07-16T03:52:09;1.50;;;1.40;;
7501;SDS011;3792;47.740;7.606;2023-07-16T03:54:36;1.27;;;1.17;;
7501;SDS011;3792;47.740;7.606;2023-07-16T03:57:04;2.20;;;1.37;;
7501;SDS011;3792;47.740;7.606;2023-07-16T03:59:31;2.10;;;1.47;;
7501;SDS011;3792;47.740;7.606;2023-07-16T04:02:00;2.60;;;1.33;;
7501;SDS011;3792;47.740;7.606;2023-07-16T04:04:27;1.80;;;1.30;;
7501;SDS011;3792;47.740;7.606;2023-07-16T04:06:54;2.63;;;1.33;;
7501;SDS011;3792;47.740;7.606;2023-07-16T04:09:21;1.47;;;1.33;;
7501;SDS011;3792;47.740;7.606;2023-07-16T04:11:48;2.03;;;1.13;;
7501;SDS011;3792;47.740;7.606;2023-07-16T04:14:15;3.23;;;1.10;;
7501;SDS011;3792;47.740;7.606;2023-07-16T04:16:42;1.90;;;1.30;;
7501;SDS011;3792;47.740;7.606;2023-07-16T04:19:11;1.10;;;1.00;;
7501;SDS011;3792;47.740;7.606;2023-07-16T04:21:38;1.47;;;1.30;;
7501;SDS011;3792;47.740;7.606;2023-07-16T04:24:05;2.20;;;1.40;;
7501;SDS011;3792;47.740;7.606;2023-07-16T04:26:32;1.37;;;1.27;;
7501;SDS011;3792;47.740;7.606;2023-07-16T04:28:59;1.50;;;1.20;;
7501;SDS011;3792;47.740;7.606;2023-07-16T04:31:26;1.30;;;1.20;;
7501;SDS011;3792;47.740;7.606;2023-07-16T04:33:53;1.93;;;1.17;;
7501;SDS011;3792;47.740;7.606;2023-07-16T04:36:22;1.57;;;1.40;;
7501;SDS011;3792;47.740;7.606;2023-07-16T04:38:49;3.07;;;1.40;;
7501;SDS011;3792;47.740;7.606;2023-07-16T04:41:16;2.23;;;1.80;;
7501;SDS011;3792;47.740;7.606;2023-07-16T04:43:43;3.03;;;1.60;;
7501;SDS011;3792;47.740;7.606;2023-07-16T04:46:10;2.67;;;1.60;;
7501;SDS011;3792;47.740;7.606;2023-07-16T04:48:38;3.07;;;1.77;;
7501;SDS011;3792;47.740;7.606;2023-07-16T04:51:05;1.43;;;1.17;;
7501;SDS011;3792;47.740;7.606;2023-07-16T04:53:33;1.70;;;1.50;;
7501;SDS011;3792;47.740;7.606;2023-07-16T04:56:00;3.27;;;1.30;;
7501;SDS011;3792;47.740;7.606;2023-07-16T04:58:27;2.47;;;1.47;;
7501;SDS011;3792;47.740;7.606;2023-07-16T05:00:54;2.27;;;1.80;;
7501;SDS011;3792;47.740;7.606;2023-07-16T05:03:21;1.53;;;1.43;;
7501;SDS011;3792;47.740;7.606;2023-07-16T05:05:48;1.67;;;1.30;;
7501;SDS011;3792;47.740;7.606;2023-07-16T05:08:15;3.43;;;1.33;;
7501;SDS011;3792;47.740;7.606;2023-07-16T05:10:44;1.77;;;1.60;;
7501;SDS011;3792;47.740;7.606;2023-07-16T05:13:11;6.50;;;1.70;;
7501;SDS011;3792;47.740;7.606;2023-07-16T05:15:38;1.97;;;1.50;;
7501;SDS011;3792;47.740;7.606;2023-07-16T05:18:05;3.53;;;1.63;;
7501;SDS011;3792;47.740;7.606;2023-07-16T05:20:32;3.30;;;1.50;;
7501;SDS011;3792;47.740;7.606;2023-07-16T05:22:59;2.90;;;1.50;;
7501;SDS011;3792;47.740;7.606;2023-07-16T05:25:26;4.30;;;1.43;;
7501;SDS011;3792;47.740;7.606;2023-07-16T05:27:55;5.53;;;1.90;;
7501;SDS011;3792;47.740;7.606;2023-07-16T05:30:22;1.77;;;1.40;;
7501;SDS011;3792;47.740;7.606;2023-07-16T05:32:49;3.40;;;1.30;;
7501;SDS011;3792;47.740;7.606;2023-07-16T05:35:16;2.43;;;1.60;;
7501;SDS011;3792;47.740;7.606;2023-07-16T05:37:43;1.83;;;1.50;;
7501;SDS011;3792;47.740;7.606;2023-07-16T05:40:11;1.73;;;1.50;;
7501;SDS011;3792;47.740;7.606;2023-07-16T05:42:38;3.47;;;1.60;;
7501;SDS011;3792;47.740;7.606;2023-07-16T05:45:07;3.23;;;1.77;;
7501;SDS011;3792;47.740;7.606;2023-07-16T05:47:35;3.27;;;1.87;;
7501;SDS011;3792;47.740;7.606;2023-07-16T05:50:02;3.70;;;1.50;;
7501;SDS011;3792;47.740;7.606;2023-07-16T05:52:29;3.87;;;1.40;;
7501;SDS011;3792;47.740;7.606;2023-07-16T05:54:57;2.23;;;1.70;;
7501;SDS011;3792;47.740;7.606;2023-07-16T05:57:24;2.50;;;1.80;;
7501;SDS011;3792;47.740;7.606;2023-07-16T05:59:51;4.73;;;1.57;;
7501;SDS011;3792;47.740;7.606;2023-07-16T06:02:19;3.10;;;1.40;;
7501;SDS011;3792;47.740;7.606;2023-07-16T06:04:46;2.57;;;1.40;;
7501;SDS011;3792;47.740;7.606;2023-07-16T06:07:13;2.43;;;1.43;;
7501;SDS011;3792;47.740;7.606;2023-07-16T06:09:42;4.70;;;1.47;;
7501;SDS011;3792;47.740;7.606;2023-07-16T06:12:09;4.47;;;1.67;;
7501;SDS011;3792;47.740;7.606;2023-07-16T06:14:36;1.67;;;1.57;;
7501;SDS011;3792;47.740;7.606;2023-07-16T06:17:03;4.23;;;1.77;;
7501;SDS011;3792;47.740;7.606;2023-07-16T06:19:32;3.10;;;1.60;;
7501;SDS011;3792;47.740;7.606;2023-07-16T06:21:59;2.27;;;1.60;;
7501;SDS011;3792;47.740;7.606;2023-07-16T06:24:26;1.60;;;1.50;;
7501;SDS011;3792;47.740;7.606;2023-07-16T06:26:53;2.77;;;1.70;;
7501;SDS011;3792;47.740;7.606;2023-07-16T06:29:20;4.90;;;1.70;;
7501;SDS011;3792;47.740;7.606;2023-07-16T06:31:54;3.10;;;1.33;;
7501;SDS011;3792;47.740;7.606;2023-07-16T06:34:21;2.80;;;1.80;;
7501;SDS011;3792;47.740;7.606;2023-07-16T06:36:50;5.10;;;1.60;;
7501;SDS011;3792;47.740;7.606;2023-07-16T06:39:17;2.70;;;1.50;;
7501;SDS011;3792;47.740;7.606;2023-07-16T06:41:44;3.57;;;1.80;;
7501;SDS011;3792;47.740;7.606;2023-07-16T06:44:12;4.57;;;1.60;;
7501;SDS011;3792;47.740;7.606;2023-07-16T06:46:39;3.07;;;1.50;;
7501;SDS011;3792;47.740;7.606;2023-07-16T06:49:06;4.27;;;1.77;;
7501;SDS011;3792;47.740;7.606;2023-07-16T06:51:34;4.13;;;1.50;;
7501;SDS011;3792;47.740;7.606;2023-07-16T06:54:03;3.60;;;1.57;;
7501;SDS011;3792;47.740;7.606;2023-07-16T06:56:30;3.03;;;1.57;;
7501;SDS011;3792;47.740;7.606;2023-07-16T06:58:57;3.93;;;1.77;;
7501;SDS011;3792;47.740;7.606;2023-07-16T07:01:32;2.80;;;1.30;;
7501;SDS011;3792;47.740;7.606;2023-07-16T07:04:00;3.33;;;1.87;;
7501;SDS011;3792;47.740;7.606;2023-07-16T07:06:27;4.47;;;1.60;;
7501;SDS011;3792;47.740;7.606;2023-07-16T07:08:54;2.60;;;1.77;;
7501;SDS011;3792;47.740;7.606;2023-07-16T07:11:23;3.10;;;1.50;;
7501;SDS011;3792;47.740;7.606;2023-07-16T07:13:51;4.70;;;1.60;;
7501;SDS011;3792;47.740;7.606;2023-07-16T07:16:19;4.03;;;2.00;;
7501;SDS011;3792;47.740;7.606;2023-07-16T07:18:46;3.67;;;1.67;;
7501;SDS011;3792;47.740;7.606;2023-07-16T07:21:13;2.17;;;1.67;;
7501;SDS011;3792;47.740;7.606;2023-07-16T07:23:41;5.57;;;1.70;;
7501;SDS011;3792;47.740;7.606;2023-07-16T07:26:09;3.70;;;1.90;;
7501;SDS011;3792;47.740;7.606;2023-07-16T07:28:38;4.33;;;1.73;;
7501;SDS011;3792;47.740;7.606;2023-07-16T07:31:05;4.93;;;1.63;;
7501;SDS011;3792;47.740;7.606;2023-07-16T07:33:33;3.70;;;1.97;;
7501;SDS011;3792;47.740;7.606;2023-07-16T07:36:00;4.23;;;1.80;;
7501;SDS011;3792;47.740;7.606;2023-07-16T07:38:28;5.67;;;1.53;;
7501;SDS011;3792;47.740;7.606;2023-07-16T07:40:55;2.53;;;1.23;;
7501;SDS011;3792;47.740;7.606;2023-07-16T07:43:22;5.80;;;1.90;;
7501;SDS011;3792;47.740;7.606;2023-07-16T07:45:51;9.00;;;2.03;;
7501;SDS011;3792;47.740;7.606;2023-07-16T07:48:18;4.13;;;1.77;;
7501;SDS011;3792;47.740;7.606;2023-07-16T07:50:46;3.43;;;1.30;;
7501;SDS011;3792;47.740;7.606;2023-07-16T07:53:14;4.20;;;1.73;;
7501;SDS011;3792;47.740;7.606;2023-07-16T07:55:43;2.33;;;1.60;;
7501;SDS011;3792;47.740;7.606;2023-07-16T07:58:10;6.00;;;1.90;;
7501;SDS011;3792;47.740;7.606;2023-07-16T08:00:38;3.37;;;1.50;;
7501;SDS011;3792;47.740;7.606;2023-07-16T08:03:07;6.80;;;2.10;;
7501;SDS011;3792;47.740;7.606;2023-07-16T08:05:36;4.50;;;1.70;;
7501;SDS011;3792;47.740;7.606;2023-07-16T08:08:03;3.93;;;1.80;;
7501;SDS011;3792;47.740;7.606;2023-07-16T08:10:31;5.47;;;1.90;;
7501;SDS011;3792;47.740;7.606;2023-07-16T08:12:58;4.87;;;1.93;;
7501;SDS011;3792;47.740;7.606;2023-07-16T08:15:25;6.87;;;1.80;;
7501;SDS011;3792;47.740;7.606;2023-07-16T08:17:53;4.90;;;1.90;;
7501;SDS011;3792;47.740;7.606;2023-07-16T08:20:25;5.27;;;1.93;;
7501;SDS011;3792;47.740;7.606;2023-07-16T08:22:53;4.30;;;2.27;;
7501;SDS011;3792;47.740;7.606;2023-07-16T08:25:20;5.47;;;1.80;;
7501;SDS011;3792;47.740;7.606;2023-07-16T08:27:48;9.40;;;2.40;;
7501;SDS011;3792;47.740;7.606;2023-07-16T08:30:15;4.27;;;2.00;;
7501;SDS011;3792;47.740;7.606;2023-07-16T08:32:45;4.73;;;1.80;;
7501;SDS011;3792;47.740;7.606;2023-07-16T08:35:12;3.60;;;1.87;;
7501;SDS011;3792;47.740;7.606;2023-07-16T08:37:43;4.63;;;2.07;;
7501;SDS011;3792;47.740;7.606;2023-07-16T08:40:10;3.70;;;2.13;;
7501;SDS011;3792;47.740;7.606;2023-07-16T08:42:38;3.03;;;2.00;;
7501;SDS011;3792;47.740;7.606;2023-07-16T08:45:07;4.60;;;2.10;;
7501;SDS011;3792;47.740;7.606;2023-07-16T08:47:36;6.13;;;2.00;;
7501;SDS011;3792;47.740;7.606;2023-07-16T08:50:04;2.57;;;1.30;;
7501;SDS011;3792;47.740;7.606;2023-07-16T08:52:31;4.80;;;2.10;;
7501;SDS011;3792;47.740;7.606;2023-07-16T08:55:00;5.23;;;2.00;;
7501;SDS011;3792;47.740;7.606;2023-07-16T08:57:27;4.47;;;2.37;;
7501;SDS011;3792;47.740;7.606;2023-07-16T08:59:56;6.70;;;2.17;;
7501;SDS011;3792;47.740;7.606;2023-07-16T09:02:24;4.40;;;1.90;;
7501;SDS011;3792;47.740;7.606;2023-07-16T09:04:51;5.00;;;1.77;;
7501;SDS011;3792;47.740;7.606;2023-07-16T09:07:18;2.80;;;1.97;;
7501;SDS011;3792;47.740;7.606;2023-07-16T09:09:54;5.30;;;1.90;;
7501;SDS011;3792;47.740;7.606;2023-07-16T09:12:25;5.60;;;2.20;;
7501;SDS011;3792;47.740;7.606;2023-07-16T09:14:53;4.47;;;1.80;;
7501;SDS011;3792;47.740;7.606;2023-07-16T09:17:21;3.30;;;1.90;;
7501;SDS011;3792;47.740;7.606;2023-07-16T09:19:49;4.00;;;1.77;;
7501;SDS011;3792;47.740;7.606;2023-07-16T09:22:17;7.60;;;2.27;;
7501;SDS011;3792;47.740;7.606;2023-07-16T09:24:45;2.70;;;1.70;;
7501;SDS011;3792;47.740;7.606;2023-07-16T09:27:12;3.57;;;1.67;;
7501;SDS011;3792;47.740;7.606;2023-07-16T09:29:41;3.57;;;1.70;;
7501;SDS011;3792;47.740;7.606;2023-07-16T09:32:08;2.77;;;1.60;;
7501;SDS011;3792;47.740;7.606;2023-07-16T09:34:35;4.63;;;1.60;;
7501;SDS011;3792;47.740;7.606;2023-07-16T09:37:04;3.33;;;2.00;;
7501;SDS011;3792;47.740;7.606;2023-07-16T09:39:31;5.07;;;1.87;;
7501;SDS011;3792;47.740;7.606;2023-07-16T09:41:59;13.20;;;2.77;;
7501;SDS011;3792;47.740;7.606;2023-07-16T09:44:29;4.10;;;2.00;;
7501;SDS011;3792;47.740;7.606;2023-07-16T09:46:58;3.60;;;1.83;;
7501;SDS011;3792;47.740;7.606;2023-07-16T09:49:26;3.27;;;1.87;;
7501;SDS011;3792;47.740;7.606;2023-07-16T09:51:56;9.50;;;2.00;;
7501;SDS011;3792;47.740;7.606;2023-07-16T09:54:24;3.33;;;1.87;;
7501;SDS011;3792;47.740;7.606;2023-07-16T09:56:54;4.47;;;1.90;;
7501;SDS011;3792;47.740;7.606;2023-07-16T09:59:24;3.60;;;1.87;;
7501;SDS011;3792;47.740;7.606;2023-07-16T10:01:54;5.17;;;2.20;;
7501;SDS011;3792;47.740;7.606;2023-07-16T10:04:23;5.07;;;2.10;;
7501;SDS011;3792;47.740;7.606;2023-07-16T10:06:51;4.80;;;1.60;;
7501;SDS011;3792;47.740;7.606;2023-07-16T10:09:32;3.00;;;1.60;;
7501;SDS011;3792;47.740;7.606;2023-07-16T10:12:13;4.90;;;1.60;;
7501;SDS011;3792;47.740;7.606;2023-07-16T10:14:43;4.23;;;1.83;;
7501;SDS011;3792;47.740;7.606;2023-07-16T10:17:14;3.80;;;1.90;;
7501;SDS011;3792;47.740;7.606;2023-07-16T10:19:56;4.77;;;2.00;;
7501;SDS011;3792;47.740;7.606;2023-07-16T10:22:31;2.30;;;1.50;;
7501;SDS011;3792;47.740;7.606;2023-07-16T10:25:00;5.37;;;2.13;;
7501;SDS011;3792;47.740;7.606;2023-07-16T10:27:28;5.97;;;2.10;;
7501;SDS011;3792;47.740;7.606;2023-07-16T10:29:56;5.87;;;1.73;;
7501;SDS011;3792;47.740;7.606;2023-07-16T10:32:26;5.00;;;1.87;;
7501;SDS011;3792;47.740;7.606;2023-07-16T10:34:56;5.63;;;2.20;;
7501;SDS011;3792;47.740;7.606;2023-07-16T10:37:23;5.60;;;2.10;;
7501;SDS011;3792;47.740;7.606;2023-07-16T10:39:51;4.03;;;2.23;;
7501;SDS011;3792;47.740;7.606;2023-07-16T10:42:19;4.57;;;1.87;;
7501;SDS011;3792;47.740;7.606;2023-07-16T10:44:48;3.27;;;2.10;;
7501;SDS011;3792;47.740;7.606;2023-07-16T10:47:19;5.83;;;2.03;;
7501;SDS011;3792;47.740;7.606;2023-07-16T10:49:49;5.10;;;1.87;;
7501;SDS011;3792;47.740;7.606;2023-07-16T10:52:19;4.30;;;1.90;;
7501;SDS011;3792;47.740;7.606;2023-07-16T10:54:47;4.37;;;2.03;;
7501;SDS011;3792;47.740;7.606;2023-07-16T10:57:15;5.27;;;1.73;;
7501;SDS011;3792;47.740;7.606;2023-07-16T10:59:44;3.60;;;1.90;;
7501;SDS011;3792;47.740;7.606;2023-07-16T11:02:14;5.63;;;2.30;;
7501;SDS011;3792;47.740;7.606;2023-07-16T11:04:42;3.83;;;1.97;;
7501;SDS011;3792;47.740;7.606;2023-07-16T11:07:11;4.67;;;1.80;;
7501;SDS011;3792;47.740;7.606;2023-07-16T11:09:44;2.40;;;1.93;;
7501;SDS011;3792;47.740;7.606;2023-07-16T11:12:14;5.10;;;2.53;;
7501;SDS011;3792;47.740;7.606;2023-07-16T11:14:42;13.57;;;2.47;;
7501;SDS011;3792;47.740;7.606;2023-07-16T11:17:11;8.40;;;2.37;;
7501;SDS011;3792;47.740;7.606;2023-07-16T11:19:39;6.03;;;1.90;;
7501;SDS011;3792;47.740;7.606;2023-07-16T11:22:08;7.90;;;2.27;;
7501;SDS011;3792;47.740;7.606;2023-07-16T11:24:36;5.43;;;1.93;;
7501;SDS011;3792;47.740;7.606;2023-07-16T11:27:05;3.83;;;2.00;;
7501;SDS011;3792;47.740;7.606;2023-07-16T11:29:39;5.27;;;2.13;;
7501;SDS011;3792;47.740;7.606;2023-07-16T11:32:07;5.00;;;2.07;;
7501;SDS011;3792;47.740;7.606;2023-07-16T11:34:34;5.30;;;2.10;;
7501;SDS011;3792;47.740;7.606;2023-07-16T11:37:08;5.90;;;2.20;;
7501;SDS011;3792;47.740;7.606;2023-07-16T11:39:36;4.77;;;2.30;;
7501;SDS011;3792;47.740;7.606;2023-07-16T11:42:03;4.07;;;1.97;;
7501;SDS011;3792;47.740;7.606;2023-07-16T11:44:33;4.20;;;2.07;;
7501;SDS011;3792;47.740;7.606;2023-07-16T11:47:01;6.13;;;2.37;;
7501;SDS011;3792;47.740;7.606;2023-07-16T11:49:29;2.60;;;1.70;;
7501;SDS011;3792;47.740;7.606;2023-07-16T11:51:57;6.50;;;2.07;;
7501;SDS011;3792;47.740;7.606;2023-07-16T11:54:24;7.20;;;2.13;;
7501;SDS011;3792;47.740;7.606;2023-07-16T11:56:52;4.67;;;2.00;;
7501;SDS011;3792;47.740;7.606;2023-07-16T11:59:20;4.67;;;2.00;;
7501;SDS011;3792;47.740;7.606;2023-07-16T12:01:48;3.33;;;1.90;;
7501;SDS011;3792;47.740;7.606;2023-07-16T12:04:15;4.53;;;1.97;;
7501;SDS011;3792;47.740;7.606;2023-07-16T12:06:43;4.40;;;2.03;;
7501;SDS011;3792;47.740;7.606;2023-07-16T12:09:10;5.20;;;2.10;;
7501;SDS011;3792;47.740;7.606;2023-07-16T12:11:37;8.50;;;2.40;;
7501;SDS011;3792;47.740;7.606;2023-07-16T12:14:05;7.40;;;2.10;;
7501;SDS011;3792;47.740;7.606;2023-07-16T12:16:33;3.90;;;2.30;;
7501;SDS011;3792;47.740;7.606;2023-07-16T12:19:00;6.27;;;2.67;;
7501;SDS011;3792;47.740;7.606;2023-07-16T12:21:27;4.97;;;2.20;;
7501;SDS011;3792;47.740;7.606;2023-07-16T12:23:54;6.30;;;2.07;;
7501;SDS011;3792;47.740;7.606;2023-07-16T12:26:21;5.30;;;2.23;;
7501;SDS011;3792;47.740;7.606;2023-07-16T12:28:48;4.50;;;2.10;;
7501;SDS011;3792;47.740;7.606;2023-07-16T12:31:16;7.20;;;2.13;;
7501;SDS011;3792;47.740;7.606;2023-07-16T12:33:44;4.67;;;2.43;;
7501;SDS011;3792;47.740;7.606;2023-07-16T12:36:11;3.30;;;2.03;;
7501;SDS011;3792;47.740;7.606;2023-07-16T12:38:39;4.47;;;2.13;;
7501;SDS011;3792;47.740;7.606;2023-07-16T12:41:06;4.73;;;2.00;;
7501;SDS011;3792;47.740;7.606;2023-07-16T12:43:33;6.30;;;2.03;;
7501;SDS011;3792;47.740;7.606;2023-07-16T12:46:01;5.50;;;1.87;;
7501;SDS011;3792;47.740;7.606;2023-07-16T12:48:29;5.40;;;2.23;;
7501;SDS011;3792;47.740;7.606;2023-07-16T12:50:57;3.63;;;1.90;;
7501;SDS011;3792;47.740;7.606;2023-07-16T12:53:25;3.97;;;2.00;;
7501;SDS011;3792;47.740;7.606;2023-07-16T12:55:52;4.50;;;2.17;;
7501;SDS011;3792;47.740;7.606;2023-07-16T12:58:19;2.93;;;1.80;;
7501;SDS011;3792;47.740;7.606;2023-07-16T13:00:46;4.80;;;1.90;;
7501;SDS011;3792;47.740;7.606;2023-07-16T13:03:14;6.40;;;2.20;;
7501;SDS011;3792;47.740;7.606;2023-07-16T13:05:41;3.73;;;1.63;;
7501;SDS011;3792;47.740;7.606;2023-07-16T13:08:12;3.10;;;1.80;;
7501;SDS011;3792;47.740;7.606;2023-07-16T13:10:42;4.07;;;2.20;;
7501;SDS011;3792;47.740;7.606;2023-07-16T13:13:09;3.00;;;1.70;;
7501;SDS011;3792;47.740;7.606;2023-07-16T13:15:37;3.70;;;1.90;;
7501;SDS011;3792;47.740;7.606;2023-07-16T13:18:08;11.27;;;2.73;;
7501;SDS011;3792;47.740;7.606;2023-07-16T13:20:38;3.63;;;2.07;;
7501;SDS011;3792;47.740;7.606;2023-07-16T13:23:06;5.30;;;2.33;;
7501;SDS011;3792;47.740;7.606;2023-07-16T13:25:35;3.07;;;1.80;;
7501;SDS011;3792;47.740;7.606;2023-07-16T13:28:03;4.00;;;1.90;;
7501;SDS011;3792;47.740;7.606;2023-07-16T13:30:30;4.13;;;1.97;;
7501;SDS011;3792;47.740;7.606;2023-07-16T13:32:58;3.33;;;1.90;;
7501;SDS011;3792;47.740;7.606;2023-07-16T13:35:26;2.67;;;1.80;;
7501;SDS011;3792;47.740;7.606;2023-07-16T13:37:53;3.97;;;2.50;;
7501;SDS011;3792;47.740;7.606;2023-07-16T13:40:21;6.13;;;1.90;;
7501;SDS011;3792;47.740;7.606;2023-07-16T13:42:53;3.73;;;1.83;;
7501;SDS011;3792;47.740;7.606;2023-07-16T13:45:20;7.13;;;2.00;;
7501;SDS011;3792;47.740;7.606;2023-07-16T13:47:48;4.23;;;2.20;;
7501;SDS011;3792;47.740;7.606;2023-07-16T13:50:17;3.13;;;2.40;;
7501;SDS011;3792;47.740;7.606;2023-07-16T13:52:46;5.00;;;2.00;;
7501;SDS011;3792;47.740;7.606;2023-07-16T13:55:14;3.17;;;2.17;;
7501;SDS011;3792;47.740;7.606;2023-07-16T13:57:41;4.13;;;2.30;;
7501;SDS011;3792;47.740;7.606;2023-07-16T14:00:11;2.83;;;1.73;;
7501;SDS011;3792;47.740;7.606;2023-07-16T14:02:41;4.67;;;2.27;;
7501;SDS011;3792;47.740;7.606;2023-07-16T14:05:08;5.40;;;2.00;;
7501;SDS011;3792;47.740;7.606;2023-07-16T14:07:35;4.47;;;2.10;;
7501;SDS011;3792;47.740;7.606;2023-07-16T14:10:09;4.10;;;2.20;;
7501;SDS011;3792;47.740;7.606;2023-07-16T14:12:38;4.97;;;2.03;;
7501;SDS011;3792;47.740;7.606;2023-07-16T14:15:06;3.27;;;2.20;;
7501;SDS011;3792;47.740;7.606;2023-07-16T14:17:36;2.70;;;2.00;;
7501;SDS011;3792;47.740;7.606;2023-07-16T14:20:05;3.40;;;1.90;;
7501;SDS011;3792;47.740;7.606;2023-07-16T14:22:33;6.97;;;2.50;;
7501;SDS011;3792;47.740;7.606;2023-07-16T14:25:00;4.83;;;2.00;;
7501;SDS011;3792;47.740;7.606;2023-07-16T14:27:27;3.43;;;2.13;;
7501;SDS011;3792;47.740;7.606;2023-07-16T14:29:56;4.53;;;2.10;;
7501;SDS011;3792;47.740;7.606;2023-07-16T14:32:23;4.20;;;2.17;;
7501;SDS011;3792;47.740;7.606;2023-07-16T14:35:01;3.77;;;2.00;;
7501;SDS011;3792;47.740;7.606;2023-07-16T14:38:07;4.40;;;2.00;;
7501;SDS011;3792;47.740;7.606;2023-07-16T14:40:47;2.53;;;2.10;;
7501;SDS011;3792;47.740;7.606;2023-07-16T14:43:30;2.50;;;1.90;;
7501;SDS011;3792;47.740;7.606;2023-07-16T14:45:58;4.53;;;2.00;;
7501;SDS011;3792;47.740;7.606;2023-07-16T14:48:29;5.77;;;2.40;;
7501;SDS011;3792;47.740;7.606;2023-07-16T14:51:01;3.33;;;1.90;;
7501;SDS011;3792;47.740;7.606;2023-07-16T14:53:28;4.30;;;2.17;;
7501;SDS011;3792;47.740;7.606;2023-07-16T14:55:56;3.00;;;1.90;;
7501;SDS011;3792;47.740;7.606;2023-07-16T14:58:23;3.50;;;2.20;;
7501;SDS011;3792;47.740;7.606;2023-07-16T15:00:50;4.57;;;2.27;;
7501;SDS011;3792;47.740;7.606;2023-07-16T15:03:17;4.40;;;2.07;;
7501;SDS011;3792;47.740;7.606;2023-07-16T15:05:45;2.37;;;1.87;;
7501;SDS011;3792;47.740;7.606;2023-07-16T15:08:14;4.57;;;2.10;;
7501;SDS011;3792;47.740;7.606;2023-07-16T15:10:44;5.00;;;2.10;;
7501;SDS011;3792;47.740;7.606;2023-07-16T15:13:12;4.00;;;2.00;;
7501;SDS011;3792;47.740;7.606;2023-07-16T15:15:39;4.10;;;2.03;;
7501;SDS011;3792;47.740;7.606;2023-07-16T15:18:06;3.43;;;2.00;;
7501;SDS011;3792;47.740;7.606;2023-07-16T15:20:33;2.93;;;1.83;;
7501;SDS011;3792;47.740;7.606;2023-07-16T15:23:00;4.60;;;2.10;;